createdAt,value
2023-05-12T00:00:57.895Z,23.88
2023-05-12T00:01:57.945Z,23.85
2023-05-12T00:02:58.136Z,23.88
2023-05-12T00:03:58.325Z,23.88
2023-05-12T00:04:58.258Z,23.87
2023-05-12T00:05:58.251Z,23.85
2023-05-12T00:06:58.314Z,23.87
2023-05-12T00:07:58.385Z,23.85
2023-05-12T00:09:01.286Z,23.87
2023-05-12T00:09:58.467Z,23.85
2023-05-12T00:10:58.471Z,23.88
2023-05-12T00:11:58.496Z,23.88
2023-05-12T00:12:58.496Z,23.85
2023-05-12T00:13:58.542Z,23.85
2023-05-12T00:14:58.499Z,23.84
2023-05-12T00:15:58.568Z,23.87
2023-05-12T00:16:58.528Z,23.84
2023-05-12T00:17:58.599Z,23.85
2023-05-12T00:18:58.594Z,23.85
2023-05-12T00:19:58.671Z,23.81
2023-05-12T00:20:58.565Z,23.84
2023-05-12T00:21:58.574Z,23.84
2023-05-12T00:22:59.291Z,23.84
2023-05-12T00:23:58.597Z,23.84
2023-05-12T00:24:58.586Z,23.83
2023-05-12T00:25:58.608Z,23.84
2023-05-12T00:26:58.622Z,23.84
2023-05-12T00:27:58.646Z,23.84
2023-05-12T00:28:58.650Z,23.84
2023-05-12T00:29:58.664Z,23.81
2023-05-12T00:30:58.749Z,23.84
2023-05-12T00:31:58.802Z,23.83
2023-05-12T00:32:58.746Z,23.84
2023-05-12T00:33:58.696Z,23.81
2023-05-12T00:34:58.716Z,23.84
2023-05-12T00:35:58.733Z,23.83
2023-05-12T00:36:58.751Z,23.81
2023-05-12T00:37:58.757Z,23.84
2023-05-12T00:38:58.773Z,23.84
2023-05-12T00:39:58.777Z,23.83
2023-05-12T00:40:58.792Z,23.80
2023-05-12T00:41:58.813Z,23.81
2023-05-12T00:42:58.829Z,23.83
2023-05-12T00:43:58.826Z,23.81
2023-05-12T00:44:58.883Z,23.84
2023-05-12T00:45:58.947Z,23.81
2023-05-12T00:46:58.923Z,23.80
2023-05-12T00:47:59.049Z,23.80
2023-05-12T00:48:59.087Z,23.80
2023-05-12T00:49:59.169Z,23.80
2023-05-12T00:50:59.257Z,23.80
2023-05-12T00:51:59.330Z,23.81
2023-05-12T00:52:59.417Z,23.79
2023-05-12T00:53:59.510Z,23.80
2023-05-12T00:54:59.555Z,23.79
2023-05-12T00:55:59.625Z,23.79
2023-05-12T00:56:59.696Z,23.81
2023-05-12T00:57:59.779Z,23.80
2023-05-12T00:58:59.859Z,23.79
2023-05-12T00:59:59.941Z,23.79
2023-05-12T01:01:00.064Z,23.80
2023-05-12T01:02:00.099Z,23.80
2023-05-12T01:03:00.207Z,23.79
2023-05-12T01:04:00.253Z,23.80
2023-05-12T01:05:00.341Z,23.79
2023-05-12T01:06:00.450Z,23.79
2023-05-12T01:07:00.514Z,23.79
2023-05-12T01:08:00.591Z,23.77
2023-05-12T01:09:00.683Z,23.79
2023-05-12T01:10:00.789Z,23.74
2023-05-12T01:11:00.845Z,23.76
2023-05-12T01:12:01.820Z,23.80
2023-05-12T01:13:01.009Z,23.76
2023-05-12T01:14:01.101Z,23.77
2023-05-12T01:15:01.181Z,23.79
2023-05-12T01:16:01.280Z,23.77
2023-05-12T01:17:01.374Z,23.77
2023-05-12T01:18:01.537Z,23.77
2023-05-12T01:19:01.527Z,23.74
2023-05-12T01:20:02.337Z,23.76
2023-05-12T01:21:01.688Z,23.77
2023-05-12T01:22:01.769Z,23.77
2023-05-12T01:23:02.816Z,23.76
2023-05-12T01:24:01.934Z,23.76
2023-05-12T01:25:02.041Z,23.77
2023-05-12T01:26:02.120Z,23.74
2023-05-12T01:27:02.330Z,23.74
2023-05-12T01:28:02.273Z,23.77
2023-05-12T01:29:02.358Z,23.77
2023-05-12T01:30:02.428Z,23.74
2023-05-12T01:31:02.558Z,23.74
2023-05-12T01:32:02.578Z,23.74
2023-05-12T01:33:02.692Z,23.73
2023-05-12T01:34:02.816Z,23.74
2023-05-12T01:35:02.831Z,23.74
2023-05-12T01:36:02.938Z,23.76
2023-05-12T01:37:03.018Z,23.76
2023-05-12T01:38:03.096Z,23.76
2023-05-12T01:39:03.164Z,23.74
2023-05-12T01:40:03.248Z,23.73
2023-05-12T01:41:03.333Z,23.74
2023-05-12T01:42:03.407Z,23.73
2023-05-12T01:43:03.485Z,23.73
2023-05-12T01:44:03.573Z,23.73
2023-05-12T01:45:03.641Z,23.74
2023-05-12T01:46:03.734Z,23.74
2023-05-12T01:47:03.808Z,23.72
2023-05-12T01:48:03.830Z,23.73
2023-05-12T01:49:03.877Z,23.69
2023-05-12T01:50:03.944Z,23.69
2023-05-12T01:51:04.042Z,23.72
2023-05-12T01:52:04.102Z,23.74
2023-05-12T01:53:04.191Z,23.72
2023-05-12T01:54:04.261Z,23.72
2023-05-12T01:55:04.353Z,23.69
2023-05-12T01:56:04.435Z,23.72
2023-05-12T01:57:04.515Z,23.73
2023-05-12T01:58:04.590Z,23.72
2023-05-12T01:59:04.695Z,23.70
2023-05-12T02:00:04.756Z,23.70
2023-05-12T02:01:04.822Z,23.72
2023-05-12T02:02:04.926Z,23.70
2023-05-12T02:03:05.152Z,23.70
2023-05-12T02:04:05.163Z,23.70
2023-05-12T02:05:05.131Z,23.69
2023-05-12T02:06:05.193Z,23.69
2023-05-12T02:07:05.255Z,23.69
2023-05-12T02:08:05.332Z,23.67
2023-05-12T02:09:05.408Z,23.69
2023-05-12T02:10:05.475Z,23.67
2023-05-12T02:11:05.550Z,23.70
2023-05-12T02:12:05.657Z,23.69
2023-05-12T02:13:05.721Z,23.70
2023-05-12T02:14:05.803Z,23.69
2023-05-12T02:15:05.889Z,23.69
2023-05-12T02:16:05.987Z,23.70
2023-05-12T02:17:06.052Z,23.69
2023-05-12T02:18:06.195Z,23.69
2023-05-12T02:19:06.406Z,23.69
2023-05-12T02:20:06.280Z,23.65
2023-05-12T02:21:06.355Z,23.69
2023-05-12T02:22:06.425Z,23.66
2023-05-12T02:23:06.473Z,23.69
2023-05-12T02:24:07.340Z,23.67
2023-05-12T02:25:07.341Z,23.67
2023-05-12T02:26:06.719Z,23.67
2023-05-12T02:27:06.860Z,23.67
2023-05-12T02:28:06.966Z,23.67
2023-05-12T02:29:06.948Z,23.69
2023-05-12T02:30:07.019Z,23.66
2023-05-12T02:31:07.050Z,23.67
2023-05-12T02:32:07.218Z,23.65
2023-05-12T02:33:07.209Z,23.67
2023-05-12T02:34:07.231Z,23.70
2023-05-12T02:35:07.353Z,23.67
2023-05-12T02:36:07.373Z,23.66
2023-05-12T02:37:07.453Z,23.66
2023-05-12T02:38:07.533Z,23.66
2023-05-12T02:39:07.618Z,23.66
2023-05-12T02:40:07.680Z,23.65
2023-05-12T02:41:07.739Z,23.67
2023-05-12T02:42:07.779Z,23.65
2023-05-12T02:43:07.833Z,23.65
2023-05-12T02:44:07.905Z,23.66
2023-05-12T02:45:07.948Z,23.62
2023-05-12T02:46:08.018Z,23.66
2023-05-12T02:47:08.034Z,23.65
2023-05-12T02:48:08.135Z,23.65
2023-05-12T02:49:08.136Z,23.63
2023-05-12T02:50:08.170Z,23.66
2023-05-12T02:51:08.204Z,23.65
2023-05-12T02:52:08.847Z,23.63
2023-05-12T02:53:08.298Z,23.65
2023-05-12T02:54:08.330Z,23.66
2023-05-12T02:55:08.356Z,23.65
2023-05-12T02:56:08.371Z,23.65
2023-05-12T02:57:08.406Z,23.66
2023-05-12T02:58:08.444Z,23.63
2023-05-12T02:59:08.493Z,23.65
2023-05-12T03:00:09.352Z,23.63
2023-05-12T03:01:11.184Z,23.63
2023-05-12T03:02:08.747Z,23.63
2023-05-12T03:03:08.827Z,23.62
2023-05-12T03:04:08.626Z,23.63
2023-05-12T03:05:08.648Z,23.63
2023-05-12T03:06:08.659Z,23.60
2023-05-12T03:07:08.691Z,23.62
2023-05-12T03:08:08.705Z,23.62
2023-05-12T03:09:08.722Z,23.65
2023-05-12T03:10:08.733Z,23.60
2023-05-12T03:11:08.757Z,23.62
2023-05-12T03:12:08.782Z,23.60
2023-05-12T03:13:08.793Z,23.62
2023-05-12T03:14:09.358Z,23.62
2023-05-12T03:15:08.827Z,23.63
2023-05-12T03:16:08.834Z,23.60
2023-05-12T03:17:08.935Z,23.60
2023-05-12T03:18:08.938Z,23.62
2023-05-12T03:19:08.930Z,23.62
2023-05-12T03:20:08.896Z,23.59
2023-05-12T03:21:08.909Z,23.59
2023-05-12T03:22:08.941Z,23.60
2023-05-12T03:23:08.954Z,23.57
2023-05-12T03:24:08.969Z,23.59
2023-05-12T03:25:08.971Z,23.60
2023-05-12T03:26:09.000Z,23.60
2023-05-12T03:27:09.014Z,23.60
2023-05-12T03:28:09.032Z,23.59
2023-05-12T03:29:09.056Z,23.59
2023-05-12T03:30:09.151Z,23.59
2023-05-12T03:31:09.101Z,23.57
2023-05-12T03:32:09.108Z,23.59
2023-05-12T03:33:09.122Z,23.59
2023-05-12T03:34:09.132Z,23.60
2023-05-12T03:35:09.151Z,23.57
2023-05-12T03:36:09.169Z,23.57
2023-05-12T03:37:09.193Z,23.59
2023-05-12T03:38:09.240Z,23.59
2023-05-12T03:39:09.224Z,23.56
2023-05-12T03:40:09.264Z,23.56
2023-05-12T03:41:09.333Z,23.56
2023-05-12T03:42:09.290Z,23.57
2023-05-12T03:43:09.313Z,23.59
2023-05-12T03:44:09.325Z,23.57
2023-05-12T03:45:09.348Z,23.57
2023-05-12T03:46:09.412Z,23.59
2023-05-12T03:47:09.435Z,23.56
2023-05-12T03:48:09.421Z,23.56
2023-05-12T03:49:09.424Z,23.60
2023-05-12T03:50:09.453Z,23.56
2023-05-12T03:51:09.462Z,23.55
2023-05-12T03:52:09.480Z,23.55
2023-05-12T03:53:09.503Z,23.53
2023-05-12T03:54:09.556Z,23.55
2023-05-12T03:55:09.546Z,23.56
2023-05-12T03:56:09.557Z,23.53
2023-05-12T03:57:09.592Z,23.55
2023-05-12T03:58:09.602Z,23.56
2023-05-12T03:59:09.624Z,23.53
2023-05-12T04:00:09.651Z,23.56
2023-05-12T04:01:09.666Z,23.55
2023-05-12T04:02:09.734Z,23.55
2023-05-12T04:03:09.779Z,23.56
2023-05-12T04:04:09.815Z,23.53
2023-05-12T04:05:09.754Z,23.55
2023-05-12T04:06:09.782Z,23.53
2023-05-12T04:07:09.794Z,23.55
2023-05-12T04:08:09.809Z,23.56
2023-05-12T04:09:10.371Z,23.55
2023-05-12T04:10:09.859Z,23.53
2023-05-12T04:11:09.877Z,23.55
2023-05-12T04:12:09.893Z,23.55
2023-05-12T04:13:09.924Z,23.53
2023-05-12T04:14:09.936Z,23.55
2023-05-12T04:15:09.951Z,23.52
2023-05-12T04:16:10.013Z,23.53
2023-05-12T04:17:10.092Z,23.49
2023-05-12T04:18:10.009Z,23.53
2023-05-12T04:19:10.084Z,23.50
2023-05-12T04:20:10.053Z,23.53
2023-05-12T04:21:10.888Z,23.52
2023-05-12T04:22:10.079Z,23.52
2023-05-12T04:23:10.092Z,23.55
2023-05-12T04:24:10.107Z,23.53
2023-05-12T04:25:10.155Z,23.53
2023-05-12T04:26:10.153Z,23.50
2023-05-12T04:27:10.188Z,23.50
2023-05-12T04:28:12.087Z,23.52
2023-05-12T04:29:10.210Z,23.53
2023-05-12T04:30:10.899Z,23.52
2023-05-12T04:31:10.882Z,23.52
2023-05-12T04:32:10.361Z,23.53
2023-05-12T04:33:10.457Z,23.52
2023-05-12T04:34:10.320Z,23.52
2023-05-12T04:35:10.338Z,23.49
2023-05-12T04:36:10.361Z,23.52
2023-05-12T04:37:10.372Z,23.52
2023-05-12T04:38:10.391Z,23.50
2023-05-12T04:39:10.420Z,23.53
2023-05-12T04:40:10.432Z,23.50
2023-05-12T04:41:10.462Z,23.52
2023-05-12T04:42:10.467Z,23.50
2023-05-12T04:44:00.035Z,23.49
2023-05-12T04:44:11.556Z,23.49
2023-05-12T04:45:10.523Z,23.52
2023-05-12T04:46:10.605Z,23.52
2023-05-12T04:47:10.553Z,23.50
2023-05-12T04:48:11.376Z,23.52
2023-05-12T04:49:10.603Z,23.49
2023-05-12T04:50:10.678Z,23.50
2023-05-12T04:51:10.624Z,23.50
2023-05-12T04:52:10.617Z,23.52
2023-05-12T04:53:11.483Z,23.50
2023-05-12T04:54:10.669Z,23.50
2023-05-12T04:55:10.685Z,23.52
2023-05-12T04:56:10.684Z,23.49
2023-05-12T04:57:10.713Z,23.52
2023-05-12T04:58:10.737Z,23.50
2023-05-12T04:59:10.730Z,23.48
2023-05-12T05:00:10.745Z,23.52
2023-05-12T05:01:10.777Z,23.50
2023-05-12T05:02:10.792Z,23.50
2023-05-12T05:03:10.984Z,23.49
2023-05-12T05:04:10.797Z,23.49
2023-05-12T05:05:10.846Z,23.49
2023-05-12T05:06:10.859Z,23.49
2023-05-12T05:07:10.907Z,23.49
2023-05-12T05:08:10.907Z,23.50
2023-05-12T05:09:10.945Z,23.50
2023-05-12T05:10:11.009Z,23.50
2023-05-12T05:11:10.992Z,23.52
2023-05-12T05:12:11.020Z,23.50
2023-05-12T05:13:11.045Z,23.52
2023-05-12T05:14:11.136Z,23.49
2023-05-12T05:15:11.088Z,23.50
2023-05-12T05:16:11.168Z,23.49
2023-05-12T05:17:11.192Z,23.50
2023-05-12T05:18:11.219Z,23.52
2023-05-12T05:19:19.505Z,23.53
2023-05-12T05:20:12.766Z,23.52
2023-05-12T05:21:11.230Z,23.50
2023-05-12T05:22:11.223Z,23.49
2023-05-12T05:23:11.251Z,23.48
2023-05-12T05:24:11.246Z,23.46
2023-05-12T05:25:11.281Z,23.50
2023-05-12T05:26:11.275Z,23.48
2023-05-12T05:27:11.306Z,23.53
2023-05-12T05:28:11.313Z,23.57
2023-05-12T05:29:11.360Z,23.62
2023-05-12T05:30:11.332Z,23.57
2023-05-12T05:31:11.386Z,23.65
2023-05-12T05:32:11.364Z,23.70
2023-05-12T05:33:12.495Z,23.74
2023-05-12T05:34:11.964Z,23.77
2023-05-12T05:35:11.907Z,23.85
2023-05-12T05:36:11.393Z,23.90
2023-05-12T05:37:11.415Z,23.94
2023-05-12T05:38:11.423Z,23.97
2023-05-12T05:39:11.411Z,24.01
2023-05-12T05:40:11.414Z,24.07
2023-05-12T05:41:11.425Z,24.09
2023-05-12T05:42:11.443Z,24.15
2023-05-12T05:43:11.414Z,24.21
2023-05-12T05:44:12.401Z,24.25
2023-05-12T05:45:11.475Z,24.26
2023-05-12T05:46:11.598Z,24.32
2023-05-12T05:47:11.588Z,24.35
2023-05-12T05:48:11.587Z,24.38
2023-05-12T05:49:11.546Z,24.42
2023-05-12T05:50:11.560Z,24.48
2023-05-12T05:51:11.569Z,24.53
2023-05-12T05:52:11.636Z,24.50
2023-05-12T05:53:11.602Z,24.53
2023-05-12T05:54:11.609Z,24.56
2023-05-12T05:55:11.631Z,24.58
2023-05-12T05:56:11.616Z,24.62
2023-05-12T05:57:11.702Z,24.62
2023-05-12T05:58:11.662Z,24.67
2023-05-12T05:59:11.651Z,24.69
2023-05-12T06:00:11.669Z,24.69
2023-05-12T06:01:11.699Z,24.73
2023-05-12T06:02:11.743Z,24.70
2023-05-12T06:03:11.908Z,24.74
2023-05-12T06:04:12.723Z,24.74
2023-05-12T06:05:13.592Z,24.76
2023-05-12T06:06:11.762Z,24.77
2023-05-12T06:07:11.841Z,24.78
2023-05-12T06:08:11.820Z,24.81
2023-05-12T06:09:11.826Z,24.81
2023-05-12T06:10:11.860Z,24.85
2023-05-12T06:11:11.905Z,24.84
2023-05-12T06:12:11.919Z,24.85
2023-05-12T06:13:11.984Z,24.84
2023-05-12T06:14:12.009Z,24.87
2023-05-12T06:15:12.056Z,24.90
2023-05-12T06:16:12.091Z,24.91
2023-05-12T06:17:12.088Z,24.91
2023-05-12T06:18:12.163Z,24.93
2023-05-12T06:19:12.165Z,24.94
2023-05-12T06:20:12.157Z,24.91
2023-05-12T06:21:12.181Z,24.95
2023-05-12T06:22:12.210Z,24.95
2023-05-12T06:23:12.247Z,24.91
2023-05-12T06:24:12.280Z,24.90
2023-05-12T06:25:12.284Z,24.87
2023-05-12T06:26:12.312Z,24.76
2023-05-12T06:27:12.387Z,24.62
2023-05-12T06:28:12.334Z,24.69
2023-05-12T06:29:12.332Z,24.67
2023-05-12T06:30:14.355Z,24.67
2023-05-12T06:31:13.337Z,24.74
2023-05-12T06:32:12.387Z,24.73
2023-05-12T06:33:12.339Z,24.77
2023-05-12T06:34:12.334Z,24.77
2023-05-12T06:35:13.001Z,24.83
2023-05-12T06:36:12.339Z,24.84
2023-05-12T06:37:12.460Z,24.88
2023-05-12T06:38:12.341Z,24.87
2023-05-12T06:39:12.852Z,24.88
2023-05-12T06:40:12.336Z,24.94
2023-05-12T06:41:12.347Z,24.90
2023-05-12T06:42:12.407Z,24.94
2023-05-12T06:43:12.462Z,24.95
2023-05-12T06:44:12.499Z,24.98
2023-05-12T06:45:12.559Z,24.97
2023-05-12T06:46:12.696Z,24.99
2023-05-12T06:47:12.694Z,24.99
2023-05-12T06:48:12.837Z,25.02
2023-05-12T06:49:12.817Z,25.02
2023-05-12T06:50:12.895Z,25.04
2023-05-12T06:51:12.952Z,25.07
2023-05-12T06:52:13.079Z,25.07
2023-05-12T06:53:13.056Z,25.01
2023-05-12T06:54:13.109Z,25.08
2023-05-12T06:55:13.172Z,25.10
2023-05-12T06:56:13.225Z,25.11
2023-05-12T06:57:13.283Z,25.14
2023-05-12T06:58:13.358Z,25.15
2023-05-12T06:59:13.424Z,25.15
2023-05-12T07:00:13.538Z,25.18
2023-05-12T07:01:13.564Z,25.19
2023-05-12T07:02:13.593Z,25.19
2023-05-12T07:03:13.675Z,25.19
2023-05-12T07:04:13.757Z,25.21
2023-05-12T07:05:13.741Z,25.25
2023-05-12T07:06:13.835Z,25.23
2023-05-12T07:07:13.878Z,25.26
2023-05-12T07:08:13.903Z,25.26
2023-05-12T07:09:13.942Z,25.28
2023-05-12T07:10:13.977Z,25.28
2023-05-12T07:11:14.026Z,25.29
2023-05-12T07:12:14.073Z,25.32
2023-05-12T07:13:14.142Z,25.30
2023-05-12T07:14:14.205Z,25.32
2023-05-12T07:15:14.457Z,25.30
2023-05-12T07:16:14.360Z,25.33
2023-05-12T07:17:14.287Z,25.35
2023-05-12T07:18:14.318Z,25.33
2023-05-12T07:19:14.422Z,25.35
2023-05-12T07:20:14.490Z,25.33
2023-05-12T07:21:14.388Z,25.23
2023-05-12T07:22:14.425Z,25.30
2023-05-12T07:23:14.462Z,25.33
2023-05-12T07:24:14.496Z,25.33
2023-05-12T07:25:16.573Z,25.32
2023-05-12T07:26:15.362Z,25.33
2023-05-12T07:27:14.467Z,25.35
2023-05-12T07:28:14.466Z,25.33
2023-05-12T07:29:14.468Z,25.36
2023-05-12T07:30:14.434Z,25.36
2023-05-12T07:31:14.451Z,25.36
2023-05-12T07:32:14.417Z,25.40
2023-05-12T07:33:14.516Z,25.36
2023-05-12T07:34:14.404Z,25.40
2023-05-12T07:35:14.448Z,25.37
2023-05-12T07:36:14.476Z,25.39
2023-05-12T07:37:14.533Z,25.37
2023-05-12T07:38:14.602Z,25.43
2023-05-12T07:39:14.573Z,25.43
2023-05-12T07:40:14.590Z,25.47
2023-05-12T07:41:15.388Z,25.50
2023-05-12T07:42:15.457Z,25.54
2023-05-12T07:43:14.697Z,25.56
2023-05-12T07:44:14.650Z,25.59
2023-05-12T07:45:14.683Z,25.59
2023-05-12T07:46:14.720Z,25.62
2023-05-12T07:47:14.777Z,25.64
2023-05-12T07:48:14.726Z,25.64
2023-05-12T07:49:14.692Z,25.66
2023-05-12T07:50:14.768Z,25.64
2023-05-12T07:51:14.705Z,25.64
2023-05-12T07:52:14.797Z,25.63
2023-05-12T07:53:14.738Z,25.63
2023-05-12T07:54:14.815Z,25.63
2023-05-12T07:55:14.857Z,25.64
2023-05-12T07:56:14.759Z,25.63
2023-05-12T07:57:14.840Z,25.63
2023-05-12T07:58:14.788Z,25.63
2023-05-12T07:59:14.788Z,25.63
2023-05-12T08:00:15.459Z,25.63
2023-05-12T08:01:14.812Z,25.66
2023-05-12T08:02:14.846Z,25.64
2023-05-12T08:03:14.882Z,25.64
2023-05-12T08:04:14.965Z,25.66
2023-05-12T08:05:14.908Z,25.67
2023-05-12T08:06:14.850Z,25.67
2023-05-12T08:07:14.903Z,25.67
2023-05-12T08:08:14.868Z,25.69
2023-05-12T08:09:14.864Z,25.70
2023-05-12T08:10:14.941Z,25.70
2023-05-12T08:11:14.874Z,25.69
2023-05-12T08:12:14.868Z,25.70
2023-05-12T08:13:14.876Z,25.71
2023-05-12T08:14:14.862Z,25.71
2023-05-12T08:15:14.975Z,25.73
2023-05-12T08:16:14.883Z,25.70
2023-05-12T08:17:14.988Z,25.67
2023-05-12T08:18:14.892Z,25.64
2023-05-12T08:19:15.000Z,25.67
2023-05-12T08:20:14.886Z,25.66
2023-05-12T08:21:14.878Z,25.63
2023-05-12T08:22:14.958Z,25.63
2023-05-12T08:23:14.908Z,25.62
2023-05-12T08:24:14.917Z,25.60
2023-05-12T08:25:14.988Z,25.57
2023-05-12T08:26:14.968Z,25.56
2023-05-12T08:27:14.973Z,25.59
2023-05-12T08:28:15.902Z,25.52
2023-05-12T08:29:14.990Z,25.52
2023-05-12T08:30:15.021Z,25.53
2023-05-12T08:31:15.067Z,25.50
2023-05-12T08:32:16.068Z,25.49
2023-05-12T08:33:15.133Z,25.47
2023-05-12T08:34:15.096Z,25.49
2023-05-12T08:35:15.133Z,25.49
2023-05-12T08:36:16.117Z,25.47
2023-05-12T08:37:15.119Z,25.47
2023-05-12T08:38:15.099Z,25.45
2023-05-12T08:39:15.087Z,25.42
2023-05-12T08:40:15.091Z,25.42
2023-05-12T08:41:15.232Z,25.40
2023-05-12T08:42:15.084Z,25.36
2023-05-12T08:43:15.122Z,25.37
2023-05-12T08:44:15.070Z,25.36
2023-05-12T08:45:15.063Z,25.33
2023-05-12T08:46:15.111Z,25.35
2023-05-12T08:47:15.068Z,25.30
2023-05-12T08:48:15.082Z,25.33
2023-05-12T08:49:15.052Z,25.32
2023-05-12T08:50:15.066Z,25.30
2023-05-12T08:51:15.094Z,25.28
2023-05-12T08:52:15.150Z,25.29
2023-05-12T08:53:15.204Z,25.26
2023-05-12T08:54:15.259Z,25.26
2023-05-12T08:55:15.304Z,25.28
2023-05-12T08:57:15.313Z,25.26
2023-05-12T08:58:15.315Z,25.26
2023-05-12T08:59:15.306Z,25.23
2023-05-12T09:00:15.297Z,25.22
2023-05-12T09:01:15.418Z,25.23
2023-05-12T09:02:15.998Z,25.21
2023-05-12T09:03:15.316Z,25.19
2023-05-12T09:04:15.327Z,25.22
2023-05-12T09:05:15.285Z,25.22
2023-05-12T09:06:15.900Z,25.19
2023-05-12T09:07:15.267Z,25.19
2023-05-12T09:08:15.269Z,25.18
2023-05-12T09:09:15.248Z,25.18
2023-05-12T09:10:32.306Z,25.19
2023-05-12T09:11:16.223Z,25.19
2023-05-12T09:12:16.794Z,25.17
2023-05-12T09:13:15.217Z,25.17
2023-05-12T09:14:15.206Z,25.17
2023-05-12T09:15:15.328Z,25.18
2023-05-12T09:16:15.256Z,25.17
2023-05-12T09:17:15.188Z,25.17
2023-05-12T09:18:15.194Z,25.18
2023-05-12T09:19:15.286Z,25.14
2023-05-12T09:20:30.397Z,25.12
2023-05-12T09:21:16.173Z,25.12
2023-05-12T09:22:15.160Z,25.12
2023-05-12T09:23:15.255Z,25.12
2023-05-12T09:24:15.205Z,25.17
2023-05-12T09:25:15.205Z,25.18
2023-05-12T09:26:15.122Z,25.19
2023-05-12T09:27:16.001Z,25.19
2023-05-12T09:28:15.997Z,25.18
2023-05-12T09:29:24.101Z,25.22
2023-05-12T09:30:16.118Z,25.21
2023-05-12T09:31:15.515Z,25.21
2023-05-12T09:32:15.087Z,25.18
2023-05-12T09:33:15.219Z,25.21
2023-05-12T09:34:15.073Z,25.19
2023-05-12T09:35:15.088Z,25.22
2023-05-12T09:36:15.098Z,25.21
2023-05-12T09:37:15.571Z,25.19
2023-05-12T09:38:15.050Z,25.22
2023-05-12T09:39:15.062Z,25.22
2023-05-12T09:40:15.079Z,25.22
2023-05-12T09:41:15.110Z,25.23
2023-05-12T09:42:15.199Z,25.22
2023-05-12T09:43:15.804Z,25.22
2023-05-12T09:44:15.270Z,25.22
2023-05-12T09:45:15.924Z,25.21
2023-05-12T09:46:15.423Z,25.23
2023-05-12T09:47:15.455Z,25.22
2023-05-12T09:48:15.497Z,25.23
2023-05-12T09:49:15.537Z,25.17
2023-05-12T09:50:15.596Z,25.12
2023-05-12T09:51:15.674Z,25.08
2023-05-12T09:52:16.508Z,25.02
2023-05-12T09:53:15.770Z,24.94
2023-05-12T09:54:15.830Z,24.84
2023-05-12T09:55:15.809Z,24.81
2023-05-12T09:56:15.826Z,24.71
2023-05-12T09:57:15.853Z,24.64
2023-05-12T09:58:15.867Z,24.63
2023-05-12T09:59:15.900Z,24.58
2023-05-12T10:00:32.821Z,24.52
2023-05-12T10:01:22.703Z,24.49
2023-05-12T10:02:16.985Z,24.48
2023-05-12T10:03:16.149Z,24.42
2023-05-12T10:04:16.029Z,24.22
2023-05-12T10:05:16.071Z,24.31
2023-05-12T10:06:16.017Z,24.29
2023-05-12T10:07:16.024Z,24.26
2023-05-12T10:08:16.054Z,24.26
2023-05-12T10:09:16.044Z,24.26
2023-05-12T10:10:16.061Z,24.26
2023-05-12T10:11:16.064Z,24.28
2023-05-12T10:12:16.108Z,24.34
2023-05-12T10:13:16.068Z,24.29
2023-05-12T10:14:16.089Z,24.31
2023-05-12T10:15:16.089Z,24.40
2023-05-12T10:16:18.006Z,24.48
2023-05-12T10:17:16.082Z,24.58
2023-05-12T10:18:17.046Z,24.58
2023-05-12T10:19:17.045Z,24.62
2023-05-12T10:20:16.076Z,24.66
2023-05-12T10:21:16.130Z,24.73
2023-05-12T10:22:16.111Z,24.78
2023-05-12T10:23:16.066Z,24.83
2023-05-12T10:24:16.077Z,24.91
2023-05-12T10:25:16.068Z,24.98
2023-05-12T10:26:16.076Z,25.02
2023-05-12T10:27:16.052Z,25.08
2023-05-12T10:28:16.088Z,25.14
2023-05-12T10:29:17.014Z,25.18
2023-05-12T10:30:16.200Z,25.23
2023-05-12T10:31:16.250Z,25.26
2023-05-12T10:32:16.236Z,25.29
2023-05-12T10:33:16.251Z,25.32
2023-05-12T10:34:16.289Z,25.33
2023-05-12T10:35:16.339Z,25.39
2023-05-12T10:36:16.344Z,25.42
2023-05-12T10:37:17.007Z,25.43
2023-05-12T10:38:16.404Z,25.46
2023-05-12T10:39:16.545Z,25.47
2023-05-12T10:40:16.470Z,25.53
2023-05-12T10:41:16.440Z,25.52
2023-05-12T10:42:16.440Z,25.56
2023-05-12T10:43:16.450Z,25.56
2023-05-12T10:44:16.531Z,25.56
2023-05-12T10:45:16.488Z,25.63
2023-05-12T10:46:16.503Z,25.64
2023-05-12T10:47:16.469Z,25.64
2023-05-12T10:48:16.954Z,25.69
2023-05-12T10:49:16.469Z,25.71
2023-05-12T10:50:17.430Z,25.71
2023-05-12T10:51:16.460Z,25.73
2023-05-12T10:52:16.490Z,25.74
2023-05-12T10:53:16.435Z,25.80
2023-05-12T10:54:16.426Z,25.80
2023-05-12T10:55:16.583Z,25.77
2023-05-12T10:56:16.807Z,25.81
2023-05-12T10:57:18.273Z,25.83
2023-05-12T10:58:16.920Z,25.84
2023-05-12T10:59:17.213Z,25.84
2023-05-12T11:00:17.280Z,25.84
2023-05-12T11:01:17.007Z,25.87
2023-05-12T11:02:17.364Z,25.84
2023-05-12T11:03:17.400Z,25.87
2023-05-12T11:04:17.194Z,25.87
2023-05-12T11:05:17.279Z,25.85
2023-05-12T11:06:17.132Z,25.84
2023-05-12T11:07:17.172Z,25.84
2023-05-12T11:08:17.776Z,25.83
2023-05-12T11:09:17.724Z,25.81
2023-05-12T11:10:17.736Z,25.81
2023-05-12T11:11:18.098Z,25.78
2023-05-12T11:12:17.541Z,25.77
2023-05-12T11:13:16.882Z,25.77
2023-05-12T11:14:16.892Z,25.74
2023-05-12T11:15:18.169Z,25.76
2023-05-12T11:16:16.934Z,25.76
2023-05-12T11:17:16.921Z,25.73
2023-05-12T11:18:17.037Z,25.69
2023-05-12T11:19:16.945Z,25.73
2023-05-12T11:20:16.957Z,25.71
2023-05-12T11:21:16.976Z,25.70
2023-05-12T11:22:16.985Z,25.67
2023-05-12T11:23:17.576Z,25.67
2023-05-12T11:24:17.012Z,25.66
2023-05-12T11:25:17.063Z,25.67
2023-05-12T11:26:17.047Z,25.66
2023-05-12T11:27:17.062Z,25.64
2023-05-12T11:28:17.139Z,25.64
2023-05-12T11:29:17.099Z,25.63
2023-05-12T11:30:18.027Z,25.62
2023-05-12T11:31:17.131Z,25.62
2023-05-12T11:32:17.150Z,25.60
2023-05-12T11:33:17.165Z,25.62
2023-05-12T11:34:17.194Z,25.60
2023-05-12T11:35:17.231Z,25.59
2023-05-12T11:36:17.214Z,25.60
2023-05-12T11:37:17.208Z,25.59
2023-05-12T11:38:17.236Z,25.57
2023-05-12T11:39:17.330Z,25.57
2023-05-12T11:40:17.283Z,25.57
2023-05-12T11:41:17.302Z,25.57
2023-05-12T11:42:20.112Z,25.56
2023-05-12T11:43:17.296Z,25.56
2023-05-12T11:44:17.319Z,25.56
2023-05-12T11:45:17.345Z,25.56
2023-05-12T11:46:17.310Z,25.56
2023-05-12T11:47:17.299Z,25.53
2023-05-12T11:48:17.327Z,25.53
2023-05-12T11:49:17.250Z,25.53
2023-05-12T11:50:17.258Z,25.52
2023-05-12T11:51:17.243Z,25.53
2023-05-12T11:52:17.249Z,25.52
2023-05-12T11:53:17.262Z,25.53
2023-05-12T11:54:17.266Z,25.50
2023-05-12T11:55:17.302Z,25.50
2023-05-12T11:56:17.970Z,25.50
2023-05-12T11:57:17.230Z,25.50
2023-05-12T11:58:17.219Z,25.49
2023-05-12T11:59:17.226Z,25.46
2023-05-12T12:00:17.250Z,25.46
2023-05-12T12:01:17.225Z,25.46
2023-05-12T12:02:17.258Z,25.47
2023-05-12T12:03:17.609Z,25.43
2023-05-12T12:04:17.299Z,25.46
2023-05-12T12:05:17.262Z,25.43
2023-05-12T12:06:17.551Z,25.43
2023-05-12T12:07:17.246Z,25.42
2023-05-12T12:08:17.256Z,25.42
2023-05-12T12:09:17.271Z,25.42
2023-05-12T12:10:17.279Z,25.42
2023-05-12T12:11:17.264Z,25.39
2023-05-12T12:12:17.280Z,25.37
2023-05-12T12:13:17.282Z,25.40
2023-05-12T12:14:17.288Z,25.37
2023-05-12T12:15:17.329Z,25.40
2023-05-12T12:16:17.330Z,25.36
2023-05-12T12:17:17.316Z,25.36
2023-05-12T12:18:17.300Z,25.35
2023-05-12T12:19:17.395Z,25.36
2023-05-12T12:20:17.556Z,25.35
2023-05-12T12:21:18.849Z,25.32
2023-05-12T12:22:17.313Z,25.33
2023-05-12T12:23:17.350Z,25.30
2023-05-12T12:24:17.313Z,25.30
2023-05-12T12:25:17.319Z,25.33
2023-05-12T12:26:17.316Z,25.32
2023-05-12T12:27:17.316Z,25.32
2023-05-12T12:28:17.357Z,25.32
2023-05-12T12:29:17.323Z,25.30
2023-05-12T12:30:17.319Z,25.28
2023-05-12T12:31:17.361Z,25.30
2023-05-12T12:32:17.311Z,25.28
2023-05-12T12:33:20.178Z,25.29
2023-05-12T12:34:17.321Z,25.29
2023-05-12T12:35:17.299Z,25.28
2023-05-12T12:36:17.316Z,25.26
2023-05-12T12:37:17.363Z,25.26
2023-05-12T12:38:17.337Z,25.28
2023-05-12T12:39:19.811Z,25.26
2023-05-12T12:40:17.330Z,25.26
2023-05-12T12:41:17.316Z,25.26
2023-05-12T12:42:17.314Z,25.25
2023-05-12T12:43:17.330Z,25.28
2023-05-12T12:44:17.306Z,25.23
2023-05-12T12:45:20.090Z,25.23
2023-05-12T12:46:17.366Z,25.28
2023-05-12T12:47:17.407Z,25.26
2023-05-12T12:48:17.331Z,25.26
2023-05-12T12:49:17.296Z,25.25
2023-05-12T12:50:17.303Z,25.26
2023-05-12T12:51:17.288Z,25.25
2023-05-12T12:52:17.285Z,25.23
2023-05-12T12:53:17.328Z,25.25
2023-05-12T12:54:17.297Z,25.28